Time;durP1;ratioP1;P1;durP2;ratioP2;P2;SDS_P1;SDS_P2;PMS_P1;PMS_P2;Temp;Humidity;BMP_temperature;BMP_pressure;BME280_temperature;BME280_humidity;BME280_pressure;Samples;Min_cycle;Max_cycle;Signal;HPM_P1;HPM_P2
2021/04/27 00:01:50;;;;;;;8.75;3.60;;;;;;;11.18;51.33;100439.81;4406753;32;20504;-75
2021/04/27 00:04:16;;;;;;;8.70;4.20;;;;;;;11.28;51.24;100439.47;4399289;32;20798;-74
2021/04/27 00:06:42;;;;;;;11.40;4.25;;;;;;;11.32;51.07;100439.38;4401239;32;20042;-74
2021/04/27 00:09:08;;;;;;;16.67;5.35;;;;;;;11.34;50.98;100439.69;4400404;32;20164;-74
2021/04/27 00:11:34;;;;;;;13.45;4.53;;;;;;;11.30;51.02;100436.22;4397145;32;20094;-74
2021/04/27 00:14:01;;;;;;;16.60;4.45;;;;;;;11.20;51.13;100434.53;4394050;32;20095;-74
2021/04/27 00:16:27;;;;;;;11.30;4.30;;;;;;;11.13;51.17;100440.34;4397963;32;20453;-74
2021/04/27 00:18:52;;;;;;;10.57;4.78;;;;;;;10.87;51.86;100442.38;4397219;32;20078;-74
2021/04/27 00:21:18;;;;;;;10.93;4.40;;;;;;;10.87;51.98;100428.31;4399409;32;20056;-74
2021/04/27 00:23:44;;;;;;;10.38;3.85;;;;;;;10.81;52.30;100415.22;4401272;32;20110;-74
2021/04/27 00:26:10;;;;;;;7.37;4.05;;;;;;;10.83;52.26;100412.75;4404033;32;20078;-75
2021/04/27 00:28:36;;;;;;;12.05;4.90;;;;;;;10.86;52.17;100412.63;4397581;32;20039;-74
2021/04/27 00:31:02;;;;;;;14.93;4.65;;;;;;;10.80;52.41;100397.53;4397548;32;20177;-74
2021/04/27 00:33:27;;;;;;;11.23;4.20;;;;;;;10.78;52.58;100407.66;4398401;32;20073;-74
2021/04/27 00:35:53;;;;;;;14.87;4.80;;;;;;;10.76;52.63;100398.88;4398472;32;20078;-74
2021/04/27 00:38:19;;;;;;;9.15;4.30;;;;;;;10.76;52.63;100390.44;4400309;32;20474;-74
2021/04/27 00:40:45;;;;;;;9.48;5.00;;;;;;;10.76;52.54;100393.25;4403694;32;20098;-74
2021/04/27 00:43:11;;;;;;;11.23;4.65;;;;;;;10.73;52.79;100391.31;4399535;32;20072;-74
2021/04/27 00:45:37;;;;;;;11.65;4.28;;;;;;;10.82;52.56;100391.44;4408750;32;20056;-74
2021/04/27 00:48:03;;;;;;;13.32;4.53;;;;;;;10.84;52.52;100391.81;4394885;32;20095;-74
2021/04/27 00:50:31;;;;;;;13.45;4.47;;;;;;;10.82;52.32;100383.00;4398273;32;20034;-74
2021/04/27 00:52:58;;;;;;;10.75;4.20;;;;;;;10.87;52.46;100383.25;4400344;32;20038;-74
2021/04/27 00:55:24;;;;;;;12.88;4.62;;;;;;;10.83;52.59;100374.12;4400653;32;20061;-74
2021/04/27 00:57:50;;;;;;;13.82;4.93;;;;;;;10.85;52.47;100373.66;4399749;32;20038;-75
2021/04/27 01:00:20;;;;;;;13.55;4.28;;;;;;;10.82;52.65;100366.13;4399491;32;20022;-74
2021/04/27 01:02:46;;;;;;;12.68;4.87;;;;;;;10.87;52.57;100366.37;4395233;32;20398;-74
2021/04/27 01:05:18;;;;;;;8.98;4.50;;;;;;;10.80;52.71;100360.94;4398519;32;20111;-74
2021/04/27 01:10:36;;;;;;;9.93;4.82;;;;;;;11.43;51.55;100358.09;3984900;32;15053513;-75
2021/04/27 01:13:07;;;;;;;14.43;4.72;;;;;;;11.43;51.55;100358.09;4437372;32;20076;-74
2021/04/27 01:15:33;;;;;;;14.63;4.80;;;;;;;11.01;52.13;100351.84;4439887;32;20149;-75
2021/04/27 01:18:00;;;;;;;11.20;4.60;;;;;;;10.92;52.48;100346.09;4434144;32;20442;-74
2021/04/27 01:26:02;;;;;;;8.32;4.55;;;;;;;11.07;52.89;100337.97;3984550;32;15022619;-75
2021/04/27 01:28:29;;;;;;;13.40;4.75;;;;;;;11.07;52.89;100337.97;4440093;32;20205;-74
2021/04/27 01:30:57;;;;;;;13.77;4.97;;;;;;;10.58;53.55;100331.13;4439987;32;20033;-75
2021/04/27 01:33:27;;;;;;;19.15;5.85;;;;;;;10.58;53.68;100314.22;4440870;32;20063;-74
2021/04/27 01:35:54;;;;;;;8.25;4.68;;;;;;;10.61;53.63;100319.72;4439515;32;20122;-73
2021/04/27 01:38:22;;;;;;;10.23;4.87;;;;;;;10.62;53.88;100318.50;4439956;32;20144;-73
2021/04/27 01:40:50;;;;;;;8.43;4.62;;;;;;;10.63;53.95;100311.63;4438283;32;20086;-72
2021/04/27 01:43:17;;;;;;;18.33;5.10;;;;;;;10.71;53.61;100304.53;4440306;32;20079;-73
2021/04/27 01:45:46;;;;;;;11.98;4.78;;;;;;;10.78;53.36;100309.16;4440728;32;20195;-72
2021/04/27 01:48:13;;;;;;;14.30;5.53;;;;;;;10.83;53.37;100302.97;4437925;32;20029;-75
2021/04/27 01:50:42;;;;;;;12.55;5.10;;;;;;;10.85;53.30;100306.91;4438602;32;20034;-74
2021/04/27 01:53:12;;;;;;;15.10;5.25;;;;;;;10.90;53.20;100300.72;4437667;32;20056;-74
2021/04/27 01:55:38;;;;;;;17.02;4.93;;;;;;;10.87;53.25;100293.19;4441264;32;20068;-73
2021/04/27 01:58:03;;;;;;;15.32;5.47;;;;;;;10.78;53.56;100293.06;4439102;32;20065;-73
2021/04/27 02:00:29;;;;;;;15.50;4.85;;;;;;;10.58;54.17;100288.91;4438588;32;20089;-73
2021/04/27 02:02:55;;;;;;;14.80;5.03;;;;;;;10.39;54.49;100282.25;4422386;32;20068;-72
2021/04/27 02:05:21;;;;;;;12.90;5.03;;;;;;;10.44;54.57;100283.72;4418477;32;20097;-73
2021/04/27 02:07:47;;;;;;;12.00;5.12;;;;;;;10.43;54.46;100277.28;4423508;32;20453;-73
2021/04/27 02:10:14;;;;;;;14.73;5.03;;;;;;;10.38;54.38;100271.44;4425145;32;20038;-73
2021/04/27 02:12:45;;;;;;;16.30;5.47;;;;;;;10.46;54.02;100264.37;4423049;32;20046;-73
2021/04/27 02:15:13;;;;;;;11.77;5.30;;;;;;;10.42;54.19;100258.03;4423123;32;20363;-73
2021/04/27 02:18:05;;;;;;;16.12;5.18;;;;;;;10.17;54.68;100269.25;4427288;32;20377;-75
2021/04/27 02:20:31;;;;;;;10.73;4.72;;;;;;;10.03;55.17;100260.00;4421879;32;20077;-75
2021/04/27 02:23:00;;;;;;;20.75;5.95;;;;;;;9.90;55.37;100259.19;4421956;32;20077;-73
2021/04/27 02:25:27;;;;;;;12.73;6.03;;;;;;;9.94;55.37;100259.84;4424602;32;20440;-72
2021/04/27 02:27:54;;;;;;;14.52;4.97;;;;;;;9.98;55.28;100266.16;4424590;32;20118;-72
2021/04/27 02:30:21;;;;;;;14.15;4.90;;;;;;;10.01;55.02;100253.25;4421221;32;20068;-75
2021/04/27 02:32:47;;;;;;;14.70;4.93;;;;;;;10.06;55.06;100263.94;4423340;32;20491;-72
2021/04/27 02:35:15;;;;;;;15.43;5.30;;;;;;;10.15;54.60;100260.50;4422619;32;20121;-72
2021/04/27 02:37:44;;;;;;;11.02;5.12;;;;;;;10.15;54.72;100271.75;4412610;32;20021;-73
2021/04/27 02:40:13;;;;;;;13.80;5.07;;;;;;;10.20;54.32;100268.38;4412121;32;20050;-73
2021/04/27 02:42:39;;;;;;;13.88;5.18;;;;;;;10.25;54.16;100254.56;4406913;32;20140;-73
2021/04/27 02:45:09;;;;;;;12.55;5.30;;;;;;;10.20;54.04;100254.31;4411510;32;20072;-73
2021/04/27 02:47:36;;;;;;;13.95;4.93;;;;;;;10.30;53.98;100253.19;4412366;32;20029;-73
2021/04/27 02:50:03;;;;;;;17.10;6.57;;;;;;;10.34;53.93;100249.03;4413550;32;20244;-75
2021/04/27 02:52:29;;;;;;;12.73;5.00;;;;;;;10.33;53.79;100249.47;4412184;32;20461;-74
2021/04/27 02:54:56;;;;;;;15.63;5.45;;;;;;;10.32;53.80;100236.66;4411941;32;20488;-72
2021/04/27 02:57:21;;;;;;;17.12;5.60;;;;;;;10.33;53.69;100244.66;4412272;32;20059;-73
2021/04/27 02:59:47;;;;;;;23.35;6.03;;;;;;;10.24;53.82;100235.31;4414322;32;20397;-73
2021/04/27 03:02:13;;;;;;;14.38;5.62;;;;;;;10.22;53.65;100221.72;4410862;32;20069;-73
2021/04/27 03:04:38;;;;;;;17.17;5.60;;;;;;;10.26;53.75;100216.75;4414095;32;20160;-73
2021/04/27 03:07:04;;;;;;;15.02;6.10;;;;;;;10.28;53.76;100202.25;4412376;32;20017;-72
2021/04/27 03:09:30;;;;;;;29.55;6.22;;;;;;;10.23;53.74;100200.00;4406719;32;20115;-73
2021/04/27 03:11:56;;;;;;;20.83;6.45;;;;;;;10.21;53.63;100213.72;4411335;32;20081;-72
2021/04/27 03:14:21;;;;;;;19.95;5.82;;;;;;;10.10;54.04;100191.56;4413902;32;20100;-73
2021/04/27 03:16:47;;;;;;;15.82;5.87;;;;;;;10.07;54.04;100186.84;4412242;32;20069;-72
2021/04/27 03:19:14;;;;;;;18.75;6.10;;;;;;;10.24;53.67;100196.72;4412747;32;20057;-73
2021/04/27 03:21:39;;;;;;;20.23;6.37;;;;;;;10.30;53.09;100180.88;4411516;32;20083;-73
2021/04/27 03:24:05;;;;;;;14.77;5.82;;;;;;;10.38;52.72;100179.41;4412462;32;20038;-73
2021/04/27 03:26:31;;;;;;;12.13;5.65;;;;;;;10.37;52.79;100163.75;4414383;32;20068;-73
2021/04/27 03:28:57;;;;;;;14.18;5.30;;;;;;;10.38;53.02;100173.78;4413758;32;20038;-73
2021/04/27 03:31:23;;;;;;;12.82;6.10;;;;;;;10.30;53.16;100166.81;4412623;32;20079;-73
2021/04/27 03:33:48;;;;;;;15.23;6.93;;;;;;;10.67;52.38;100168.78;4410559;32;20073;-73
2021/04/27 03:36:14;;;;;;;19.70;6.80;;;;;;;10.36;53.35;100164.22;4413088;32;20100;-73
2021/04/27 03:38:40;;;;;;;17.12;6.03;;;;;;;10.34;53.30;100163.91;4414163;32;20030;-73
2021/04/27 03:41:06;;;;;;;12.77;6.18;;;;;;;10.48;53.08;100155.78;4412375;32;20125;-73
2021/04/27 03:43:32;;;;;;;13.93;6.00;;;;;;;10.43;53.04;100164.00;4412156;32;20100;-73
2021/04/27 03:45:58;;;;;;;14.93;5.80;;;;;;;10.54;53.01;100167.25;4411837;32;20102;-73
2021/04/27 03:48:24;;;;;;;15.40;6.57;;;;;;;10.52;52.88;100158.47;4412091;32;20077;-73
2021/04/27 03:50:51;;;;;;;14.48;6.35;;;;;;;10.58;52.87;100153.88;4413308;32;20111;-73
2021/04/27 03:53:17;;;;;;;14.70;5.90;;;;;;;10.61;52.84;100150.91;4411943;32;20030;-73
2021/04/27 03:55:43;;;;;;;12.20;5.78;;;;;;;10.60;52.93;100154.19;4414564;32;20462;-73
2021/04/27 03:58:10;;;;;;;20.90;5.80;;;;;;;10.59;52.94;100146.97;4407455;32;20127;-73
2021/04/27 04:00:36;;;;;;;11.82;5.70;;;;;;;10.75;52.51;100152.47;4410777;32;20069;-73
2021/04/27 04:03:03;;;;;;;15.05;6.47;;;;;;;10.84;52.18;100144.09;4412418;32;20327;-73
2021/04/27 04:05:29;;;;;;;13.48;5.93;;;;;;;10.80;52.20;100154.72;4413207;32;20438;-73
2021/04/27 04:07:55;;;;;;;13.38;6.05;;;;;;;10.80;52.36;100154.72;4412344;32;20152;-73
2021/04/27 04:10:21;;;;;;;12.07;6.05;;;;;;;10.85;51.98;100151.31;4411746;32;20100;-73
2021/04/27 04:12:47;;;;;;;13.13;6.47;;;;;;;11.02;51.77;100147.09;4408565;32;20119;-74
2021/04/27 04:15:15;;;;;;;12.80;6.15;;;;;;;11.17;51.44;100142.53;4412822;32;20092;-73
2021/04/27 04:17:41;;;;;;;17.15;6.72;;;;;;;11.24;51.22;100145.09;4411675;32;20077;-74
2021/04/27 04:20:12;;;;;;;14.98;6.28;;;;;;;11.30;51.04;100146.06;4409601;32;20207;-73
2021/04/27 04:22:38;;;;;;;18.55;6.53;;;;;;;11.42;50.65;100142.41;4412949;32;20764;-73
2021/04/27 04:25:07;;;;;;;14.45;6.43;;;;;;;11.49;50.40;100137.31;4409480;32;20054;-73
2021/04/27 04:27:32;;;;;;;13.93;6.32;;;;;;;11.54;50.15;100139.50;4412118;32;20485;-73
2021/04/27 04:29:58;;;;;;;16.30;5.72;;;;;;;11.59;50.22;100135.31;4414655;32;20150;-73
2021/04/27 04:32:24;;;;;;;14.57;6.25;;;;;;;11.52;50.32;100127.12;4413932;32;20066;-73
2021/04/27 04:34:50;;;;;;;15.05;6.60;;;;;;;11.42;50.53;100133.97;4408694;32;20077;-73
2021/04/27 04:37:16;;;;;;;11.52;6.25;;;;;;;11.42;50.53;100134.72;4408852;32;20066;-74
2021/04/27 04:39:41;;;;;;;13.05;6.70;;;;;;;11.14;51.40;100129.38;4410326;32;20109;-73
2021/04/27 04:42:07;;;;;;;11.07;6.40;;;;;;;11.15;51.35;100130.94;4413082;32;20145;-73
2021/04/27 04:44:35;;;;;;;11.93;6.12;;;;;;;11.20;51.30;100127.53;4410024;32;20041;-73
2021/04/27 04:47:03;;;;;;;13.98;7.03;;;;;;;11.11;51.71;100135.91;4411310;32;20052;-73
2021/04/27 04:49:28;;;;;;;17.90;6.70;;;;;;;10.99;52.13;100140.34;4409683;32;20089;-73
2021/04/27 04:51:54;;;;;;;22.52;6.90;;;;;;;10.83;52.71;100146.13;4413112;32;20019;-73
2021/04/27 04:54:21;;;;;;;13.48;7.12;;;;;;;10.97;52.49;100136.41;4411643;32;20087;-73
2021/04/27 04:56:48;;;;;;;14.20;6.70;;;;;;;10.94;52.59;100137.31;4404094;32;20026;-73
2021/04/27 04:59:14;;;;;;;17.20;6.82;;;;;;;10.74;53.12;100136.81;4410876;32;20021;-73
2021/04/27 05:01:40;;;;;;;16.48;7.03;;;;;;;10.67;53.57;100128.59;4410094;32;20100;-73
2021/04/27 05:04:06;;;;;;;15.48;7.30;;;;;;;10.55;54.09;100133.03;4411839;32;20054;-73
2021/04/27 05:06:36;;;;;;;17.37;7.50;;;;;;;10.55;53.93;100124.59;4412670;32;20072;-73
2021/04/27 05:09:05;;;;;;;18.52;7.68;;;;;;;10.29;54.75;100117.44;4411694;32;20050;-73
2021/04/27 05:11:31;;;;;;;13.90;7.72;;;;;;;10.54;54.23;100114.59;4407163;32;20062;-73
2021/04/27 05:13:57;;;;;;;16.67;6.60;;;;;;;10.64;53.66;100118.25;4412158;32;20133;-73
2021/04/27 05:16:24;;;;;;;13.45;7.45;;;;;;;10.89;53.14;100118.97;4412621;32;20050;-73
2021/04/27 05:18:50;;;;;;;13.82;6.53;;;;;;;11.03;53.01;100117.69;4412709;32;20173;-73
2021/04/27 05:21:16;;;;;;;11.55;6.82;;;;;;;11.18;52.52;100122.37;4409478;32;20073;-73
2021/04/27 05:23:43;;;;;;;15.20;6.72;;;;;;;11.28;52.22;100120.38;4411083;32;20034;-73
2021/04/27 05:26:09;;;;;;;21.05;7.03;;;;;;;11.38;51.99;100110.75;4410589;32;20482;-74
2021/04/27 05:28:35;;;;;;;16.17;7.78;;;;;;;11.45;51.76;100116.91;4410379;32;20168;-73
2021/04/27 05:31:00;;;;;;;20.27;7.35;;;;;;;11.38;52.07;100113.56;4411284;32;20091;-74
2021/04/27 05:33:26;;;;;;;21.25;7.20;;;;;;;11.47;51.94;100108.78;4413136;32;20083;-74
2021/04/27 05:35:52;;;;;;;17.02;7.68;;;;;;;11.59;51.74;100112.78;4404271;32;20043;-73
2021/04/27 05:38:18;;;;;;;21.02;7.22;;;;;;;11.67;51.63;100111.28;4409200;32;20526;-74
2021/04/27 05:40:43;;;;;;;22.52;7.90;;;;;;;11.74;51.35;100108.19;4408666;32;20130;-73
2021/04/27 05:43:09;;;;;;;22.77;7.30;;;;;;;11.91;51.22;100118.78;4411657;32;20081;-75
2021/04/27 05:45:35;;;;;;;22.00;7.35;;;;;;;12.04;50.90;100115.88;4411985;32;20602;-73
2021/04/27 05:48:00;;;;;;;16.73;6.97;;;;;;;12.21;50.44;100117.19;4412265;32;20447;-74
2021/04/27 05:50:26;;;;;;;21.37;7.28;;;;;;;12.43;50.23;100122.75;4412448;32;20477;-73
2021/04/27 05:52:53;;;;;;;15.90;7.30;;;;;;;12.50;49.74;100117.59;4409117;32;20026;-74
2021/04/27 05:55:21;;;;;;;13.27;7.12;;;;;;;12.71;49.35;100119.53;4410612;32;20022;-74
2021/04/27 05:57:47;;;;;;;17.92;6.68;;;;;;;12.83;48.47;100115.00;4411029;32;20067;-74
2021/04/27 06:00:14;;;;;;;20.08;7.65;;;;;;;12.99;48.15;100115.50;4407904;32;20026;-74
2021/04/27 06:02:40;;;;;;;18.55;7.87;;;;;;;13.07;48.08;100107.50;4409324;32;20030;-74
2021/04/27 06:05:07;;;;;;;15.98;7.78;;;;;;;13.52;47.25;100108.25;4409526;32;20073;-74
2021/04/27 06:07:32;;;;;;;23.55;7.82;;;;;;;13.72;46.64;100107.75;4409979;32;20034;-74
2021/04/27 06:09:58;;;;;;;17.60;8.45;;;;;;;13.50;47.35;100104.34;4407985;32;20092;-74
2021/04/27 06:12:24;;;;;;;18.15;8.52;;;;;;;13.59;47.24;100105.09;4410614;32;20105;-74
2021/04/27 06:14:50;;;;;;;24.67;8.30;;;;;;;13.53;48.11;100100.56;4407438;32;20406;-74
2021/04/27 06:17:15;;;;;;;25.12;8.65;;;;;;;13.69;47.82;100100.97;4411639;32;20021;-74
2021/04/27 06:19:41;;;;;;;14.52;7.45;;;;;;;13.76;47.97;100103.47;4415026;32;20122;-74
2021/04/27 06:22:07;;;;;;;23.40;8.48;;;;;;;13.84;48.33;100107.53;4413555;32;20187;-73
2021/04/27 06:24:33;;;;;;;24.95;8.95;;;;;;;13.88;48.51;100111.00;4410618;32;20049;-74
2021/04/27 06:26:59;;;;;;;23.67;8.32;;;;;;;14.07;48.16;100111.69;4414981;32;20073;-74
2021/04/27 06:29:25;;;;;;;22.37;8.10;;;;;;;14.27;47.78;100105.50;4407453;32;20072;-74
2021/04/27 06:31:51;;;;;;;22.90;8.80;;;;;;;14.33;47.71;100107.19;4413674;32;20033;-74
2021/04/27 06:34:16;;;;;;;21.33;8.50;;;;;;;14.38;48.00;100103.72;4412741;32;20074;-75
2021/04/27 06:36:42;;;;;;;18.05;8.43;;;;;;;14.37;47.94;100113.47;4405345;32;20135;-75
2021/04/27 06:39:08;;;;;;;22.55;7.90;;;;;;;14.40;47.83;100114.56;4408368;32;20113;-74
2021/04/27 06:41:34;;;;;;;19.10;8.60;;;;;;;14.33;48.11;100117.75;4404721;32;20304;-74
2021/04/27 06:44:02;;;;;;;16.52;8.07;;;;;;;14.49;47.81;100106.81;4393277;32;20078;-74
2021/04/27 06:46:29;;;;;;;19.12;8.85;;;;;;;14.46;48.13;100104.16;4401490;32;20196;-74
2021/04/27 06:48:55;;;;;;;17.48;9.02;;;;;;;14.42;48.30;100107.16;4405743;32;20046;-74
2021/04/27 06:51:21;;;;;;;17.40;8.90;;;;;;;14.50;48.23;100096.25;4408016;32;20134;-76
2021/04/27 06:53:48;;;;;;;21.58;8.80;;;;;;;14.46;48.26;100101.31;4399942;32;20057;-75
2021/04/27 06:56:14;;;;;;;17.95;8.20;;;;;;;14.42;48.56;100100.72;4398957;32;20077;-75
2021/04/27 06:58:40;;;;;;;15.90;8.35;;;;;;;14.50;48.37;100101.91;4402886;32;20074;-76
2021/04/27 07:01:05;;;;;;;19.37;8.45;;;;;;;14.55;48.41;100104.09;4395597;32;20085;-76
2021/04/27 07:03:33;;;;;;;19.45;9.23;;;;;;;14.58;48.06;100092.59;4399947;32;20077;-76
2021/04/27 07:06:01;;;;;;;17.80;8.65;;;;;;;14.58;48.33;100088.97;4391262;32;20086;-76
2021/04/27 07:08:27;;;;;;;19.30;8.95;;;;;;;14.65;48.34;100089.41;4399032;32;20093;-76
2021/04/27 07:10:53;;;;;;;14.10;8.25;;;;;;;14.68;48.27;100079.94;4389036;32;20088;-76
2021/04/27 07:13:20;;;;;;;18.58;8.55;;;;;;;14.87;47.78;100081.37;4393198;32;20081;-76
2021/04/27 07:15:46;;;;;;;18.98;9.35;;;;;;;14.88;48.17;100085.00;4396143;32;20135;-75
2021/04/27 07:18:14;;;;;;;17.67;8.23;;;;;;;15.06;47.64;100088.47;4394469;32;20058;-75
2021/04/27 07:20:41;;;;;;;22.25;8.77;;;;;;;15.08;47.67;100085.13;4397221;32;20077;-75
2021/04/27 07:23:07;;;;;;;16.77;8.43;;;;;;;15.11;47.75;100087.00;4399679;32;20105;-75
2021/04/27 07:25:35;;;;;;;16.75;8.13;;;;;;;15.21;47.50;100092.13;4394252;32;20254;-74
2021/04/27 07:28:01;;;;;;;15.63;7.80;;;;;;;15.18;47.24;100078.91;4399107;32;20081;-75
2021/04/27 07:30:27;;;;;;;15.45;8.30;;;;;;;15.31;47.19;100078.66;4394300;32;20133;-76
2021/04/27 07:32:53;;;;;;;19.75;7.93;;;;;;;15.44;46.90;100077.09;4394706;32;20112;-76
2021/04/27 07:35:19;;;;;;;18.95;8.80;;;;;;;15.58;46.68;100075.56;4396111;32;20168;-75
2021/04/27 07:37:46;;;;;;;19.87;7.90;;;;;;;15.62;46.29;100079.75;4396655;32;20061;-74
2021/04/27 07:40:12;;;;;;;17.42;7.97;;;;;;;15.71;45.86;100078.91;4397054;32;20100;-75
2021/04/27 07:42:39;;;;;;;15.48;7.15;;;;;;;15.78;45.65;100069.97;4398681;32;20066;-74
2021/04/27 07:45:07;;;;;;;16.95;7.00;;;;;;;16.06;45.13;100059.88;4395609;32;20046;-76
2021/04/27 07:47:32;;;;;;;17.50;7.37;;;;;;;16.26;44.74;100065.56;4396587;32;20130;-76
2021/04/27 07:49:58;;;;;;;17.73;6.78;;;;;;;16.36;44.31;100061.34;4396397;32;20064;-75
2021/04/27 07:52:26;;;;;;;14.85;6.40;;;;;;;16.81;43.15;100065.62;4400885;32;20073;-74
2021/04/27 07:54:52;;;;;;;13.02;5.85;;;;;;;16.96;42.44;100057.75;4396018;32;20452;-76
2021/04/27 07:57:18;;;;;;;14.02;5.70;;;;;;;17.11;42.07;100062.09;4396817;32;20061;-76
2021/04/27 07:59:44;;;;;;;13.80;6.18;;;;;;;16.97;42.26;100060.09;4395226;32;20077;-75
2021/04/27 08:02:10;;;;;;;19.98;6.80;;;;;;;17.06;41.83;100064.88;4399904;32;20058;-76
2021/04/27 08:04:36;;;;;;;16.17;8.15;;;;;;;17.25;41.66;100057.59;4395664;32;20042;-75
2021/04/27 08:07:03;;;;;;;15.65;7.20;;;;;;;17.33;41.38;100053.81;4395872;32;20086;-75
2021/04/27 08:09:29;;;;;;;15.00;6.95;;;;;;;17.25;41.12;100055.53;4397098;32;20088;-76
2021/04/27 08:11:54;;;;;;;15.70;6.30;;;;;;;17.48;40.99;100060.19;4396488;32;20100;-75
2021/04/27 08:14:21;;;;;;;12.45;5.85;;;;;;;17.66;40.59;100056.22;4396842;32;20096;-75
2021/04/27 08:16:48;;;;;;;23.25;8.15;;;;;;;17.82;39.93;100056.38;4398712;32;20501;-75
2021/04/27 08:19:14;;;;;;;13.93;7.65;;;;;;;17.67;39.18;100058.56;4397689;32;20064;-74
2021/04/27 08:21:40;;;;;;;31.75;11.95;;;;;;;17.70;39.12;100051.88;4400409;32;20066;-77
2021/04/27 08:24:07;;;;;;;24.55;13.75;;;;;;;17.97;38.05;100053.38;4398375;32;20034;-74
2021/04/27 08:26:33;;;;;;;28.12;14.52;;;;;;;17.92;37.51;100043.50;4399741;32;20119;-77
2021/04/27 08:28:59;;;;;;;20.35;11.82;;;;;;;18.22;37.35;100051.75;4400302;32;20118;-75
2021/04/27 08:31:24;;;;;;;21.85;12.85;;;;;;;18.64;36.76;100048.91;4402611;32;20105;-76
2021/04/27 08:33:50;;;;;;;24.67;14.32;;;;;;;18.83;36.49;100045.13;4398676;32;20168;-76
2021/04/27 08:36:16;;;;;;;27.67;14.65;;;;;;;18.97;36.28;100051.91;4398792;32;20076;-77
2021/04/27 08:38:42;;;;;;;20.62;9.30;;;;;;;18.80;36.17;100048.22;4397096;32;20068;-77
2021/04/27 08:41:09;;;;;;;17.33;7.18;;;;;;;18.55;36.87;100046.28;4399889;32;20046;-77
2021/04/27 08:43:35;;;;;;;18.08;7.80;;;;;;;17.92;38.46;100042.75;4395361;32;20081;-75
2021/04/27 08:46:01;;;;;;;13.05;6.90;;;;;;;17.95;38.53;100044.59;4396689;32;20074;-77
2021/04/27 08:48:27;;;;;;;17.58;9.25;;;;;;;18.00;38.24;100040.19;4399123;32;20045;-77
2021/04/27 08:50:53;;;;;;;19.80;10.43;;;;;;;17.87;38.45;100038.56;4398841;32;20071;-77
2021/04/27 08:53:21;;;;;;;26.27;12.27;;;;;;;17.82;38.39;100047.84;4398162;32;20170;-78
2021/04/27 08:55:47;;;;;;;38.53;20.65;;;;;;;17.65;38.89;100044.06;4399851;32;20034;-77
2021/04/27 08:58:15;;;;;;;50.53;26.77;;;;;;;17.56;37.95;100047.09;4396012;32;20073;-76
2021/04/27 09:00:42;;;;;;;55.90;29.17;;;;;;;17.66;37.52;100053.38;4396528;32;20030;-76
2021/04/27 09:03:10;;;;;;;55.15;28.38;;;;;;;17.81;36.37;100040.59;4397521;32;20067;-77
2021/04/27 09:05:39;;;;;;;56.22;30.73;;;;;;;17.92;36.04;100036.25;4401311;32;20466;-78
2021/04/27 09:08:05;;;;;;;77.15;39.58;;;;;;;18.08;36.02;100032.75;4401712;32;20427;-78
2021/04/27 09:10:38;;;;;;;105.47;57.38;;;;;;;17.88;36.40;100042.19;4401144;32;20103;-77
2021/04/27 09:13:13;;;;;;;109.68;59.03;;;;;;;18.00;35.60;100038.13;4399486;32;20192;-76
2021/04/27 09:15:50;;;;;;;98.78;54.38;;;;;;;17.83;36.00;100038.00;4401183;32;20061;-76
2021/04/27 09:18:39;;;;;;;90.68;48.15;;;;;;;18.12;35.71;100039.78;4396487;32;20082;-79
2021/04/27 09:21:08;;;;;;;44.47;22.45;;;;;;;18.33;36.00;100040.44;4398240;32;21466;-76
2021/04/27 09:23:37;;;;;;;45.72;24.83;;;;;;;18.32;37.46;100033.19;4396851;32;20107;-76
2021/04/27 09:28:45;;;;;;;52.22;28.58;;;;;;;18.50;37.02;100039.25;3967737;32;15022720;-75
2021/04/27 09:31:32;;;;;;;50.53;26.30;;;;;;;18.50;37.02;100039.25;4418751;32;20099;-77
2021/04/27 09:34:26;;;;;;;49.50;26.15;;;;;;;17.64;38.52;100036.00;4418531;32;20081;-76
2021/04/27 09:36:56;;;;;;;59.30;29.58;;;;;;;17.54;38.73;100043.97;4417799;32;20097;-74
2021/04/27 09:39:41;;;;;;;64.53;30.85;;;;;;;17.24;38.06;100036.91;4418171;32;20073;-77
2021/04/27 09:42:14;;;;;;;51.37;25.30;;;;;;;16.92;39.06;100038.09;4420625;32;20088;-75
2021/04/27 09:44:46;;;;;;;61.22;25.20;;;;;;;16.72;40.28;100040.19;4416680;32;20064;-76
2021/04/27 09:47:17;;;;;;;49.45;25.58;;;;;;;16.59;41.44;100037.69;4418904;32;20437;-74
2021/04/27 09:49:53;;;;;;;53.25;28.08;;;;;;;16.46;41.45;100033.63;4419014;32;20056;-76
2021/04/27 09:52:19;;;;;;;53.25;27.45;;;;;;;16.28;40.70;100034.66;4418311;32;20158;-76
2021/04/27 09:55:04;;;;;;;51.00;27.70;;;;;;;15.92;40.98;100038.75;4415422;32;20414;-78
2021/04/27 09:57:33;;;;;;;50.47;23.83;;;;;;;15.81;41.40;100032.88;4418623;32;20426;-77
2021/04/27 10:00:27;;;;;;;48.95;24.55;;;;;;;15.62;42.14;100037.22;4418867;32;20170;-77
2021/04/27 10:02:54;;;;;;;62.47;31.83;;;;;;;15.45;44.16;100026.84;4404033;32;20084;-77
2021/04/27 10:05:20;;;;;;;60.67;34.38;;;;;;;15.26;44.53;100033.97;4400101;32;20454;-76
2021/04/27 10:07:47;;;;;;;73.30;35.97;;;;;;;15.10;44.79;100032.38;4403398;32;20076;-76
2021/04/27 10:10:15;;;;;;;62.50;33.22;;;;;;;15.04;45.12;100027.88;4400952;32;20054;-77
2021/04/27 10:12:42;;;;;;;59.17;29.73;;;;;;;15.00;45.32;100032.97;4401422;32;20038;-76
2021/04/27 10:15:09;;;;;;;57.85;28.73;;;;;;;14.92;45.63;100023.25;4396177;32;20057;-76
2021/04/27 10:17:35;;;;;;;39.60;18.23;;;;;;;14.81;46.25;100026.66;4398694;32;20120;-76
2021/04/27 10:20:04;;;;;;;28.30;12.10;;;;;;;14.63;46.55;100028.88;4402969;32;20074;-77
2021/04/27 10:22:30;;;;;;;32.08;12.48;;;;;;;14.62;46.41;100024.44;4402066;32;20056;-76
2021/04/27 10:24:58;;;;;;;23.08;8.63;;;;;;;14.42;47.03;100022.22;4403762;32;20042;-75
2021/04/27 10:27:27;;;;;;;13.27;6.80;;;;;;;14.42;47.17;100025.06;4400787;32;20288;-78
2021/04/27 10:30:16;;;;;;;12.93;3.60;;;;;;;14.30;48.05;100025.31;4402771;32;20411;-75
2021/04/27 10:32:42;;;;;;;10.02;2.87;;;;;;;14.46;47.49;100022.84;4402452;32;20491;-75
2021/04/27 10:35:12;;;;;;;6.47;1.87;;;;;;;14.48;47.45;100019.53;4403081;32;20096;-76
2021/04/27 10:40:54;;;;;;;12.75;1.40;;;;;;;15.70;44.49;100020.59;3948396;32;15019651;-76
2021/04/27 10:48:44;;;;;;;7.47;1.70;;;;;;;16.55;42.13;100020.06;3972289;32;15022810;-76
2021/04/27 10:54:13;;;;;;;8.48;1.35;;;;;;;16.98;40.74;100029.63;3947239;32;15034624;-77
2021/04/27 10:59:57;;;;;;;8.30;1.50;;;;;;;17.10;39.83;100023.59;3975264;32;15022654;-76
2021/04/27 11:02:26;;;;;;;7.53;1.12;;;;;;;17.10;39.83;100023.59;4419288;32;20126;-79
2021/04/27 11:04:56;;;;;;;7.87;1.40;;;;;;;16.69;40.74;100015.59;4412882;32;20100;-75
2021/04/27 11:15:14;;;;;;;5.07;1.40;;;;;;;17.95;38.81;100018.97;3969341;32;15027627;-76
2021/04/27 11:17:55;;;;;;;11.40;1.50;;;;;;;17.95;38.81;100018.97;4419865;32;20063;-75
2021/04/27 11:20:43;;;;;;;9.27;2.00;;;;;;;17.70;39.12;100008.38;4417510;32;20610;-76
2021/04/27 11:23:29;;;;;;;15.30;1.50;;;;;;;17.98;38.04;100008.62;4418822;32;20066;-76
2021/04/27 11:25:55;;;;;;;7.35;1.37;;;;;;;17.80;38.62;100010.53;4420979;32;20409;-76
2021/04/27 11:28:57;;;;;;;10.88;1.62;;;;;;;18.20;37.60;100003.84;4420293;32;20488;-76
2021/04/27 11:31:23;;;;;;;10.90;1.70;;;;;;;18.22;37.83;100009.03;4420998;32;20053;-77
2021/04/27 11:34:04;;;;;;;6.78;1.70;;;;;;;18.57;36.84;100003.81;4419133;32;20091;-76
2021/04/27 11:39:23;;;;;;;6.15;1.23;;;;;;;19.81;34.45;100005.91;3967316;32;15027358;-79
2021/04/27 11:41:52;;;;;;;7.20;1.80;;;;;;;19.81;34.45;100005.91;4416354;32;20245;-81
2021/04/27 11:44:20;;;;;;;11.57;2.00;;;;;;;19.47;34.84;99999.44;4417629;32;20084;-76
2021/04/27 11:50:00;;;;;;;7.07;2.40;;;;;;;20.44;33.18;100004.03;3944312;32;15854661;-77
2021/04/27 12:03:47;;;;;;;21.12;8.18;;;;;;;19.38;36.11;99991.13;3984183;32;15029064;-79
2021/04/27 12:06:18;;;;;;;14.20;6.10;;;;;;;19.13;36.34;99992.09;4436933;32;20060;-80
2021/04/27 12:11:25;;;;;;;30.43;14.43;;;;;;;18.38;38.09;99994.91;3992434;31;15015710;-77